Keene, NH (03431)

10:55 PM EST on December 08, 2016 (GMT -0500)
Court St. | | Change Station

Elev 522 ft 42.94 °N, 72.29 °W | Updated 18 seconds ago

Clear
Clear
29.5 °F
Feels Like 30 °F
N
1.0
Wind Variable Wind from WNW

Today
High -- | Low -- °F
--% Chance of Precip.
Yesterday
High -- | Low -- °F
Precip. -- in
Pressure 29.89 in
Visibility 10.0 miles
Clouds Clear
Windchill 30 °F
Dew Point 18 °F
Humidity 63%
Rainfall 0.00 in
Snow Depth Not available.
7:07 AM 4:14 PM
Waxing Gibbous, 70% visible
METAR KEEN 090256Z AUTO 24007KT 10SM CLR 00/M07 A2983 RMK AO2 SLP120 6//// T00001072 58002 FZRANO PNO $
Pressure 29.89 in
Visibility 10.0 miles
Clouds Clear
Windchill 30 °F
Dew Point 18 °F
Humidity 63%
Rainfall 0.00 in
Snow Depth Not available.
7:07 AM 4:14 PM
Waxing Gibbous, 70% visible
METAR KEEN 090256Z AUTO 24007KT 10SM CLR 00/M07 A2983 RMK AO2 SLP120 6//// T00001072 58002 FZRANO PNO $

10-Day Weather Forecast

Almanac

Astronomy

Dec. 08, 2016 Rise Set
Actual Time
Civil Twilight
Nautical Twilight
Astronomical Twilight
Moon
Length of Visible Light
Length of Day
Tomorrow will be .
, % of the Moon is Illuminated

Today's Extremes

State Highs State Lows

Community

WunderPhotos

Upload Photos

1,956,370 photos uploaded!

WunderBlog® & News

Nearby

Air Quality

  Air Quality AQ Index Pollutant
Not available.

Snow Depth

Station Depth Elevation

Earthquake Activity

City Distance Mag. Time & Date
Minimum magnitude displayed is 2.5.

Coastal Water Temperatures

Place Temperature

Stations

Nearby Weather Stations

Station Location Temp. Windchill Dew Point Humidity Wind Precip. Elev Updated Type
                   

Watches & Warnings

There are currently no watches in effect.